CheckWX is a tool to help pilots better visualize weather data.  It is not intended as a substitute for an official pre-flight weather briefing.

02:46:53 UTC

KTOL TAF
Toledo Express Airport
Toledo, Ohio, USA
KTOL 250540Z 2506/2606 22005KT P6SM SKC FM251400 VRB03KT P6SM FEW045 SCT250 FM251800 18006KT P6SM SCT040 BKN100 PROB30 2518/2524 2SM -TSRA BKN035CB FM260300 VRB03KT P6SM FEW060 SCT250

May-25@
06:00 UTC

May-25 @ 06:00 UTC

May-25@
14:00 UTC

May-25 @ 14:00 UTC

TAF KTOL 250540Z 2506/2606 22005KT P6SM SKC

Expired

Wind
  • 220° at 5 KTS
Cloud Levels
  • Clear skies

May-25@
14:00 UTC

May-25 @ 14:00 UTC

May-25@
18:00 UTC

May-25 @ 18:00 UTC

FM251400 VRB03KT P6SM FEW045 SCT250

Expired

Wind
  • Variable at 3 KTS
Cloud Levels
  • Few at 4,500' AGL
  • Scattered at 25,000' AGL

May-25@
18:00 UTC

May-25 @ 18:00 UTC

May-26@
00:00 UTC

May-26 @ 00:00 UTC

PROB30 2518/2524 2SM -TSRA BKN035CB

Expired

Conditions
Light Thunderstorm, Rain
Cloud Levels
  • Broken at 3,500' AGL

May-25@
18:00 UTC

May-25 @ 18:00 UTC

May-26@
03:00 UTC

May-26 @ 03:00 UTC

FM251800 18006KT P6SM SCT040 BKN100

From

From Standard forecast or significant change

Wind
  • 180° at 6 KTS
Cloud Levels
  • Scattered at 4,000' AGL
  • Broken at 10,000' AGL

May-26@
03:00 UTC

May-26 @ 03:00 UTC

May-26@
06:00 UTC

May-26 @ 06:00 UTC

FM260300 VRB03KT P6SM FEW060 SCT250

From

From Standard forecast or significant change

Wind
  • Variable at 3 KTS
Cloud Levels
  • Few at 6,000' AGL
  • Scattered at 25,000' AGL